Time;durP1;ratioP1;P1;durP2;ratioP2;P2;SDS_P1;SDS_P2;PMS_P1;PMS_P2;Temp;Humidity;BMP_temperature;BMP_pressure;BME280_temperature;BME280_humidity;BME280_pressure;Samples;Min_cycle;Max_cycle;Signal;HPM_P1;HPM_P2
2022/09/08 00:01:18;;;;;;;11.10;5.83;;;18.50;1.00;;;;;;5051572;28;20456;-83
2022/09/08 00:03:46;;;;;;;10.07;5.57;;;18.50;1.00;;;;;;5049379;28;20518;-82
2022/09/08 00:06:22;;;;;;;10.17;5.40;;;18.50;1.00;;;;;;5051494;28;20433;-83
2022/09/08 00:08:51;;;;;;;10.20;5.20;;;18.40;1.00;;;;;;5049433;28;20563;-82
2022/09/08 00:11:21;;;;;;;11.77;6.00;;;18.40;1.00;;;;;;5033935;28;20457;-82
2022/09/08 00:14:10;;;;;;;8.53;5.10;;;18.40;1.00;;;;;;5056650;28;20457;-81
2022/09/08 00:16:41;;;;;;;9.90;5.00;;;18.40;1.00;;;;;;5039644;28;22249;-84
2022/09/08 00:19:08;;;;;;;10.30;5.23;;;18.40;1.00;;;;;;5053430;28;20959;-82
2022/09/08 00:21:41;;;;;;;9.33;5.40;;;18.40;1.00;;;;;;5053982;28;20433;-82
2022/09/08 00:24:09;;;;;;;9.23;4.70;;;18.40;1.00;;;;;;5055280;28;20438;-82
2022/09/08 00:26:42;;;;;;;10.63;5.30;;;18.30;1.00;;;;;;5052187;28;20461;-82
2022/09/08 00:29:11;;;;;;;10.60;5.33;;;18.30;1.00;;;;;;5053800;28;20468;-83
2022/09/08 00:31:41;;;;;;;8.97;4.77;;;18.30;1.00;;;;;;5043085;28;20464;-82
2022/09/08 00:34:09;;;;;;;10.63;5.40;;;18.30;1.00;;;;;;5055922;28;20432;-82
2022/09/08 00:36:38;;;;;;;10.30;5.40;;;18.20;1.00;;;;;;5031502;28;20480;-77
2022/09/08 00:39:11;;;;;;;8.80;4.83;;;18.20;1.00;;;;;;5040640;28;20472;-78
2022/09/08 00:41:40;;;;;;;11.57;5.57;;;18.20;1.00;;;;;;5045500;28;20460;-78
2022/09/08 00:44:44;;;;;;;13.47;5.40;;;18.20;1.00;;;;;;5043810;28;20472;-82
2022/09/08 00:47:18;;;;;;;10.80;6.03;;;18.10;1.00;;;;;;5046047;28;20464;-78
2022/09/08 00:49:51;;;;;;;8.83;4.90;;;18.10;1.00;;;;;;5040793;28;20487;-80
2022/09/08 00:52:18;;;;;;;9.90;4.67;;;18.10;1.00;;;;;;5045332;28;20457;-78
2022/09/08 00:54:46;;;;;;;9.17;5.03;;;18.10;1.00;;;;;;5041259;28;20619;-79
2022/09/08 00:57:16;;;;;;;9.57;5.50;;;18.10;1.00;;;;;;5040859;28;20481;-78
2022/09/08 00:59:45;;;;;;;9.07;5.03;;;18.00;1.00;;;;;;5042694;28;20557;-80
2022/09/08 01:02:25;;;;;;;9.50;5.10;;;17.90;1.00;;;;;;5040911;28;20464;-79
2022/09/08 01:04:58;;;;;;;9.00;4.60;;;18.00;1.00;;;;;;5046916;28;20979;-78
2022/09/08 01:13:40;;;;;;;8.67;4.80;;;17.90;1.00;;;;;;5044765;28;20994;-79
2022/09/08 01:16:08;;;;;;;8.57;4.97;;;17.90;1.00;;;;;;5043973;28;20428;-77
2022/09/08 01:18:38;;;;;;;8.93;4.40;;;17.90;1.00;;;;;;5042987;28;20461;-77
2022/09/08 01:21:16;;;;;;;9.43;4.80;;;17.90;1.00;;;;;;5042328;28;21629;-79
2022/09/08 01:24:08;;;;;;;8.63;4.50;;;17.80;1.00;;;;;;5039929;28;20916;-79
2022/09/08 01:26:49;;;;;;;11.77;5.40;;;17.90;1.00;;;;;;5040588;28;20418;-78
2022/09/08 01:29:20;;;;;;;9.57;4.80;;;17.80;1.00;;;;;;5044000;28;20496;-78
2022/09/08 01:31:50;;;;;;;9.70;4.43;;;17.70;1.00;;;;;;5042511;28;20438;-78
2022/09/08 01:34:20;;;;;;;8.33;4.07;;;17.70;1.00;;;;;;5041987;28;20461;-78
2022/09/08 01:36:47;;;;;;;9.47;4.90;;;17.70;1.00;;;;;;5041715;28;21391;-78
2022/09/08 01:39:14;;;;;;;10.17;4.27;;;17.70;1.00;;;;;;5040863;28;20448;-81
2022/09/08 01:41:40;;;;;;;7.50;4.27;;;17.70;1.00;;;;;;5041211;28;20465;-78
2022/09/08 01:44:07;;;;;;;9.93;5.03;;;17.70;1.00;;;;;;5044619;28;20468;-79
2022/09/08 01:46:36;;;;;;;10.57;4.83;;;17.70;1.00;;;;;;5045650;28;20465;-78
2022/09/08 01:49:03;;;;;;;8.27;3.87;;;17.70;1.00;;;;;;5043559;28;20476;-79
2022/09/08 01:51:30;;;;;;;8.20;4.10;;;17.70;1.00;;;;;;5043965;28;20920;-79
2022/09/08 01:53:57;;;;;;;7.37;4.03;;;17.70;1.00;;;;;;5044151;28;20480;-79
2022/09/08 01:56:26;;;;;;;9.23;4.30;;;17.60;1.00;;;;;;5035802;28;21405;-78
2022/09/08 01:58:53;;;;;;;8.20;4.20;;;17.70;1.00;;;;;;5041170;28;20554;-80
2022/09/08 02:01:20;;;;;;;15.00;4.17;;;17.60;1.00;;;;;;5041940;28;20468;-78
2022/09/08 02:03:49;;;;;;;10.23;4.67;;;17.60;1.00;;;;;;5030543;28;20512;-78
2022/09/08 02:06:19;;;;;;;13.40;5.27;;;17.60;1.00;;;;;;5040380;28;20467;-79
2022/09/08 02:08:50;;;;;;;7.60;3.80;;;17.50;1.00;;;;;;5043253;28;20535;-78
2022/09/08 02:11:19;;;;;;;9.77;4.10;;;17.60;1.00;;;;;;5042118;28;21247;-80
2022/09/08 02:13:46;;;;;;;8.33;4.10;;;17.60;1.00;;;;;;5041381;28;20460;-82
2022/09/08 02:16:16;;;;;;;7.40;4.20;;;17.50;1.00;;;;;;5043090;28;20468;-79
2022/09/08 02:18:43;;;;;;;8.20;4.17;;;17.50;1.00;;;;;;5046708;28;20476;-80
2022/09/08 02:21:15;;;;;;;9.47;4.30;;;17.40;1.00;;;;;;5038228;28;20473;-77
2022/09/08 02:23:44;;;;;;;7.77;4.10;;;17.30;1.00;;;;;;5043170;28;20477;-79
2022/09/08 02:26:15;;;;;;;9.23;4.63;;;17.40;1.00;;;;;;5043249;28;20452;-79
2022/09/08 02:28:43;;;;;;;8.43;4.20;;;17.40;1.00;;;;;;5044065;28;20417;-78
2022/09/08 02:31:11;;;;;;;8.60;4.60;;;17.40;1.00;;;;;;5040450;28;20480;-79
2022/09/08 02:33:40;;;;;;;9.90;4.50;;;17.40;1.00;;;;;;5045010;28;20492;-79
2022/09/08 02:36:08;;;;;;;9.10;4.57;;;17.40;1.00;;;;;;5042663;28;20467;-80
2022/09/08 02:38:36;;;;;;;8.53;4.53;;;17.30;1.00;;;;;;5043359;28;20452;-78
2022/09/08 02:41:06;;;;;;;8.60;3.97;;;17.30;1.00;;;;;;5041040;28;20480;-78
2022/09/08 02:43:33;;;;;;;10.60;4.07;;;17.20;1.00;;;;;;5045302;28;21055;-78
2022/09/08 02:46:04;;;;;;;8.10;4.17;;;17.20;1.00;;;;;;5038241;28;20457;-77
2022/09/08 02:48:31;;;;;;;12.57;5.20;;;17.20;1.00;;;;;;5041655;28;20460;-79
2022/09/08 02:50:59;;;;;;;9.03;3.83;;;17.20;1.00;;;;;;5045501;28;20518;-79
2022/09/08 02:53:28;;;;;;;13.50;4.60;;;17.20;1.00;;;;;;5042250;28;20453;-79
2022/09/08 02:55:58;;;;;;;8.07;4.00;;;17.20;1.00;;;;;;5044280;28;20535;-80
2022/09/08 02:58:25;;;;;;;8.40;4.10;;;17.30;1.00;;;;;;5038975;28;21937;-77
2022/09/08 03:00:52;;;;;;;9.67;4.57;;;17.20;1.00;;;;;;5045415;28;20481;-79
2022/09/08 03:03:23;;;;;;;9.60;4.70;;;17.20;1.00;;;;;;5040785;28;20472;-78
2022/09/08 03:05:49;;;;;;;9.33;4.33;;;17.20;1.00;;;;;;5040511;28;20472;-78
2022/09/08 03:08:17;;;;;;;11.23;4.07;;;17.10;1.00;;;;;;5039717;28;20460;-79
2022/09/08 03:10:44;;;;;;;9.33;4.13;;;17.10;1.00;;;;;;5043317;28;20977;-80
2022/09/08 03:13:13;;;;;;;7.73;3.50;;;17.10;1.00;;;;;;5039381;28;20487;-79
2022/09/08 03:15:39;;;;;;;9.00;4.07;;;17.00;1.00;;;;;;5043491;28;20465;-78
2022/09/08 03:18:06;;;;;;;8.80;3.90;;;17.00;1.00;;;;;;5046886;28;20449;-78
2022/09/08 03:20:36;;;;;;;9.33;4.53;;;17.00;1.00;;;;;;5044003;28;20497;-80
2022/09/08 03:23:04;;;;;;;10.10;3.70;;;16.90;1.00;;;;;;5040679;28;20455;-79
2022/09/08 03:25:39;;;;;;;9.50;4.50;;;17.00;1.00;;;;;;5044486;28;20459;-79
2022/09/08 03:28:07;;;;;;;9.93;4.90;;;16.90;1.00;;;;;;5040794;28;20475;-80
2022/09/08 03:30:35;;;;;;;8.80;4.27;;;16.90;1.00;;;;;;5035197;28;20469;-79
2022/09/08 03:33:02;;;;;;;10.80;4.27;;;16.90;1.00;;;;;;5042570;28;20459;-84
2022/09/08 03:35:30;;;;;;;9.77;4.47;;;16.90;1.00;;;;;;5045784;28;20474;-82
2022/09/08 03:37:57;;;;;;;9.00;4.00;;;16.80;1.00;;;;;;5039477;28;20428;-78
2022/09/08 03:40:30;;;;;;;11.03;4.40;;;16.70;1.00;;;;;;5040626;28;20464;-78
2022/09/08 03:42:56;;;;;;;9.93;4.10;;;16.70;1.00;;;;;;5043009;28;20515;-78
2022/09/08 03:45:25;;;;;;;9.53;4.50;;;16.70;1.00;;;;;;5043224;28;20973;-78
2022/09/08 03:47:56;;;;;;;8.23;4.00;;;16.60;1.00;;;;;;5045729;28;20417;-81
2022/09/08 03:50:24;;;;;;;12.40;5.07;;;16.60;1.00;;;;;;5020664;28;20974;-78
2022/09/08 03:52:51;;;;;;;8.03;4.10;;;16.60;1.00;;;;;;5046848;28;21227;-78
2022/09/08 03:55:20;;;;;;;12.60;4.37;;;16.60;1.00;;;;;;5048058;28;20465;-78
2022/09/08 03:57:49;;;;;;;10.30;4.67;;;16.50;1.00;;;;;;5048721;28;20471;-81
2022/09/08 04:00:17;;;;;;;9.13;5.00;;;16.50;1.00;;;;;;5032429;28;21197;-78
2022/09/08 04:02:45;;;;;;;10.27;4.83;;;16.40;1.00;;;;;;5033387;28;20451;-82
2022/09/08 04:05:13;;;;;;;9.50;4.30;;;16.40;1.00;;;;;;5047408;28;20492;-82
2022/09/08 04:07:50;;;;;;;8.00;4.50;;;16.30;1.00;;;;;;5049829;28;20487;-81
2022/09/08 04:10:20;;;;;;;9.57;4.00;;;16.30;1.00;;;;;;5048007;28;21005;-79
2022/09/08 04:12:48;;;;;;;8.33;3.93;;;16.30;1.00;;;;;;5048401;28;20471;-79
2022/09/08 04:15:17;;;;;;;11.50;4.10;;;16.30;1.00;;;;;;5049303;28;20522;-78
2022/09/08 04:17:46;;;;;;;8.10;3.80;;;16.30;1.00;;;;;;5048737;28;20428;-80
2022/09/08 04:20:16;;;;;;;9.13;4.50;;;16.30;1.00;;;;;;5036789;28;20484;-79
2022/09/08 04:22:49;;;;;;;13.17;4.70;;;16.20;1.00;;;;;;5048291;28;20550;-79
2022/09/08 04:25:16;;;;;;;9.60;4.30;;;16.20;1.00;;;;;;5048050;28;20461;-79
2022/09/08 04:27:43;;;;;;;9.40;4.10;;;16.20;1.00;;;;;;5047125;28;20508;-81
2022/09/08 04:30:12;;;;;;;8.93;4.40;;;16.30;1.00;;;;;;5044516;28;20467;-69
2022/09/08 04:32:40;;;;;;;9.30;4.80;;;16.20;1.00;;;;;;5031264;28;20495;-71
2022/09/08 04:35:07;;;;;;;7.03;3.93;;;16.30;1.00;;;;;;5037060;28;20460;-72
2022/09/08 04:37:36;;;;;;;8.30;4.50;;;16.40;1.00;;;;;;5040158;28;20460;-72
2022/09/08 04:40:03;;;;;;;10.10;4.87;;;16.50;1.00;;;;;;5034741;28;20481;-73
2022/09/08 04:42:30;;;;;;;9.33;4.20;;;16.60;1.00;;;;;;5034842;28;20449;-72
2022/09/08 04:44:57;;;;;;;9.20;4.20;;;16.70;1.00;;;;;;5037951;28;20559;-72
2022/09/08 04:47:24;;;;;;;9.40;4.03;;;16.80;1.00;;;;;;5033323;28;20472;-72
2022/09/08 04:49:52;;;;;;;7.50;3.97;;;16.80;1.00;;;;;;5021122;28;20482;-70
2022/09/08 04:52:20;;;;;;;8.67;4.73;;;16.80;1.00;;;;;;5029840;28;20484;-71
2022/09/08 04:54:48;;;;;;;8.40;4.23;;;16.80;1.00;;;;;;5037454;28;20472;-71
2022/09/08 04:57:15;;;;;;;8.63;4.13;;;16.80;1.00;;;;;;5036200;28;20465;-71
2022/09/08 04:59:42;;;;;;;9.97;4.70;;;16.80;1.00;;;;;;5038588;28;20503;-71
2022/09/08 05:02:09;;;;;;;8.53;4.60;;;16.90;1.00;;;;;;5039059;28;20476;-70
2022/09/08 05:04:37;;;;;;;11.60;4.83;;;16.90;1.00;;;;;;5033888;28;20460;-74
2022/09/08 05:07:04;;;;;;;8.67;4.97;;;16.90;1.00;;;;;;5040503;28;20464;-73
2022/09/08 05:09:31;;;;;;;10.53;5.20;;;16.90;1.00;;;;;;5020456;28;20475;-72
2022/09/08 05:12:00;;;;;;;13.27;6.17;;;16.90;1.00;;;;;;5039319;28;20461;-75
2022/09/08 05:14:29;;;;;;;13.83;7.27;;;17.00;1.00;;;;;;5031882;28;20536;-75
2022/09/08 05:17:11;;;;;;;10.37;5.87;;;16.90;1.00;;;;;;5042438;28;20423;-72
2022/09/08 05:19:39;;;;;;;6.90;3.97;;;17.00;1.00;;;;;;5042884;28;20479;-73
2022/09/08 05:22:06;;;;;;;8.40;4.93;;;17.00;1.00;;;;;;5047904;28;20452;-75
2022/09/08 05:24:33;;;;;;;9.03;4.33;;;17.00;1.00;;;;;;5038724;28;20480;-76
2022/09/08 05:27:01;;;;;;;8.73;5.50;;;17.10;1.00;;;;;;5045366;28;20985;-73
2022/09/08 05:29:29;;;;;;;14.73;5.60;;;17.10;1.00;;;;;;5038009;28;20468;-71
2022/09/08 05:31:58;;;;;;;9.47;4.97;;;17.20;1.00;;;;;;5045469;28;20440;-73
2022/09/08 05:34:24;;;;;;;10.00;4.80;;;17.20;1.00;;;;;;5041102;28;20445;-72
2022/09/08 05:36:52;;;;;;;9.83;5.10;;;17.30;1.00;;;;;;5048077;28;20832;-70
2022/09/08 05:39:20;;;;;;;14.00;5.90;;;17.30;1.00;;;;;;5038928;28;20444;-70
2022/09/08 05:41:48;;;;;;;13.67;5.77;;;17.20;1.00;;;;;;5044393;28;20459;-70
2022/09/08 05:44:16;;;;;;;11.23;6.10;;;17.30;1.00;;;;;;5039771;28;20461;-70
2022/09/08 05:46:44;;;;;;;11.27;5.73;;;17.30;1.00;;;;;;5046341;28;20452;-70
2022/09/08 05:49:10;;;;;;;16.00;6.10;;;17.30;1.00;;;;;;5045599;28;20564;-71
2022/09/08 05:51:38;;;;;;;8.93;4.87;;;17.50;1.00;;;;;;5041535;28;20412;-74
2022/09/08 05:54:06;;;;;;;12.63;8.03;;;17.50;1.00;;;;;;5045067;28;20539;-70
2022/09/08 05:56:33;;;;;;;9.03;4.97;;;17.40;1.00;;;;;;5046669;28;21127;-72
2022/09/08 05:59:01;;;;;;;8.80;5.20;;;17.40;1.00;;;;;;5044539;28;20440;-75
2022/09/08 06:01:33;;;;;;;8.60;4.93;;;17.40;1.00;;;;;;5044031;28;20460;-73
2022/09/08 06:04:01;;;;;;;10.43;6.10;;;17.50;1.00;;;;;;5044139;28;21312;-73
2022/09/08 06:06:31;;;;;;;12.80;4.87;;;17.60;1.00;;;;;;5040110;28;20453;-71
2022/09/08 06:08:59;;;;;;;10.17;5.00;;;17.50;1.00;;;;;;5037972;28;20988;-71
2022/09/08 06:11:26;;;;;;;8.10;5.13;;;17.50;1.00;;;;;;5037499;28;20511;-72
2022/09/08 06:13:53;;;;;;;9.20;4.90;;;17.70;1.00;;;;;;5034576;28;20495;-75
2022/09/08 06:16:21;;;;;;;10.80;5.73;;;17.70;1.00;;;;;;5038999;28;20477;-72
2022/09/08 06:18:50;;;;;;;8.23;4.50;;;17.60;1.00;;;;;;5040420;28;20485;-75
2022/09/08 06:21:18;;;;;;;12.13;6.20;;;17.60;1.00;;;;;;5037540;28;20539;-73
2022/09/08 06:23:49;;;;;;;9.90;6.10;;;17.80;1.00;;;;;;5040273;28;20456;-72
2022/09/08 06:26:39;;;;;;;9.17;5.03;;;17.80;1.00;;;;;;5033732;28;20535;-73
2022/09/08 06:29:11;;;;;;;11.40;6.40;;;17.80;1.00;;;;;;5036105;28;21529;-73
2022/09/08 06:31:44;;;;;;;11.40;5.57;;;17.90;1.00;;;;;;5038711;28;20459;-72
2022/09/08 06:34:17;;;;;;;13.90;5.20;;;17.90;1.00;;;;;;5034314;28;20524;-72
2022/09/08 06:36:49;;;;;;;12.53;6.30;;;17.90;1.00;;;;;;5037712;28;20956;-72
2022/09/08 06:39:20;;;;;;;11.70;4.70;;;17.80;1.00;;;;;;5037138;28;20480;-71
2022/09/08 06:41:55;;;;;;;9.90;6.23;;;17.80;1.00;;;;;;5041807;28;20588;-70
2022/09/08 06:44:31;;;;;;;10.23;5.87;;;17.80;1.00;;;;;;5039551;28;21357;-69
2022/09/08 06:46:58;;;;;;;14.60;7.07;;;17.90;1.00;;;;;;5039078;28;20508;-70
2022/09/08 06:49:32;;;;;;;11.40;6.20;;;17.90;1.00;;;;;;5041385;28;20477;-70
2022/09/08 06:52:10;;;;;;;12.67;5.67;;;17.90;1.00;;;;;;5044682;28;20443;-70
2022/09/08 06:54:45;;;;;;;11.40;5.63;;;17.90;1.00;;;;;;5041303;28;20574;-75
2022/09/08 06:57:54;;;;;;;8.97;5.27;;;17.90;1.00;;;;;;5047079;28;20628;-76
2022/09/08 07:00:24;;;;;;;9.17;5.17;;;18.00;1.00;;;;;;5043369;28;20992;-72
2022/09/08 07:03:12;;;;;;;9.10;5.77;;;18.10;1.00;;;;;;5029163;28;20492;-68
2022/09/08 07:05:53;;;;;;;10.70;5.40;;;18.20;1.00;;;;;;5046143;28;20485;-78
2022/09/08 07:08:39;;;;;;;9.27;5.80;;;18.20;1.00;;;;;;5044929;28;20465;-71
2022/09/08 07:11:17;;;;;;;8.90;5.70;;;18.20;1.00;;;;;;5045436;28;20567;-75
2022/09/08 07:13:57;;;;;;;9.47;6.20;;;18.20;1.00;;;;;;5043130;28;20560;-75
2022/09/08 07:16:32;;;;;;;10.57;6.43;;;18.20;1.00;;;;;;5042782;28;21250;-72
2022/09/08 07:19:02;;;;;;;11.73;6.50;;;18.30;1.00;;;;;;5048405;28;20890;-73
2022/09/08 07:21:44;;;;;;;11.03;6.10;;;18.30;1.00;;;;;;5045369;28;20437;-77
2022/09/08 07:24:17;;;;;;;10.43;6.53;;;18.40;1.00;;;;;;5044159;28;20428;-76
2022/09/08 07:26:55;;;;;;;11.23;6.20;;;18.50;1.00;;;;;;5044673;28;20976;-74
2022/09/08 07:29:25;;;;;;;12.43;6.00;;;18.60;1.00;;;;;;5044345;28;20441;-74
2022/09/08 07:31:54;;;;;;;13.77;6.10;;;18.60;1.00;;;;;;5049672;28;20454;-74
2022/09/08 07:34:23;;;;;;;13.13;5.73;;;18.50;1.00;;;;;;5042830;28;22910;-75
2022/09/08 07:37:00;;;;;;;9.77;5.40;;;18.60;1.00;;;;;;5048684;28;20456;-78
2022/09/08 07:39:38;;;;;;;12.17;9.10;;;18.70;1.00;;;;;;5048032;28;20967;-79
2022/09/08 07:42:09;;;;;;;11.33;6.60;;;18.80;1.00;;;;;;5047309;28;20472;-75
2022/09/08 07:44:37;;;;;;;14.43;6.20;;;18.90;1.00;;;;;;5042861;28;20448;-73
2022/09/08 07:47:48;;;;;;;13.80;7.30;;;18.90;1.00;;;;;;5039562;28;20971;-78
2022/09/08 07:50:25;;;;;;;12.90;6.30;;;19.00;1.00;;;;;;4938298;28;20461;-86
2022/09/08 07:53:17;;;;;;;10.20;6.63;;;18.90;1.00;;;;;;4943914;28;20485;-86
2022/09/08 07:55:48;;;;;;;13.80;6.10;;;19.00;1.00;;;;;;5019529;28;20992;-86
2022/09/08 07:58:25;;;;;;;11.80;6.60;;;19.20;1.00;;;;;;5032172;28;20494;-87
2022/09/08 08:01:05;;;;;;;14.07;6.60;;;19.30;1.00;;;;;;5023589;28;20998;-87
2022/09/08 08:03:45;;;;;;;8.87;5.60;;;19.30;1.00;;;;;;5042050;28;20511;-85
2022/09/08 08:06:20;;;;;;;14.77;6.47;;;19.40;1.00;;;;;;5051625;28;20453;-85
2022/09/08 08:09:04;;;;;;;12.10;6.40;;;19.40;1.00;;;;;;5028663;28;20551;-86
2022/09/08 08:11:38;;;;;;;13.33;6.70;;;19.40;1.00;;;;;;5033931;28;20822;-88
2022/09/08 08:14:15;;;;;;;11.30;6.40;;;19.50;1.00;;;;;;5052807;28;20994;-85
2022/09/08 08:16:54;;;;;;;13.97;6.30;;;19.50;1.00;;;;;;5052139;28;20452;-85
2022/09/08 08:19:42;;;;;;;12.40;7.03;;;19.50;1.00;;;;;;5048768;28;20983;-86
2022/09/08 08:22:20;;;;;;;14.03;6.80;;;19.30;1.00;;;;;;5021666;28;20456;-88
2022/09/08 08:25:05;;;;;;;13.47;6.40;;;19.10;1.00;;;;;;5048988;28;20467;-87
2022/09/08 08:27:45;;;;;;;14.90;6.60;;;18.90;1.00;;;;;;5048449;28;20436;-85
2022/09/08 08:30:17;;;;;;;10.30;5.87;;;18.80;1.00;;;;;;5044747;28;20905;-78
2022/09/08 08:32:53;;;;;;;12.57;6.63;;;18.60;1.00;;;;;;5042024;28;20461;-85
2022/09/08 08:35:27;;;;;;;14.90;7.13;;;18.40;1.00;;;;;;5044567;28;20547;-76
2022/09/08 08:37:54;;;;;;;14.50;8.00;;;18.20;1.00;;;;;;5040653;28;20464;-78
2022/09/08 08:40:32;;;;;;;16.03;9.50;;;18.10;1.00;;;;;;5039844;28;20461;-77
2022/09/08 08:43:22;;;;;;;13.63;8.13;;;17.80;1.00;;;;;;5042572;28;20475;-78
2022/09/08 08:46:03;;;;;;;15.37;8.33;;;17.50;1.00;;;;;;5029892;28;20476;-77
2022/09/08 08:48:44;;;;;;;15.80;7.97;;;17.20;1.00;;;;;;5042549;28;20452;-77
2022/09/08 08:51:55;;;;;;;12.40;8.20;;;16.90;1.00;;;;;;5043946;28;20464;-76
2022/09/08 08:54:53;;;;;;;15.67;9.50;;;16.80;1.00;;;;;;4971012;28;20456;-77
2022/09/08 08:57:41;;;;;;;15.10;10.73;;;16.80;1.00;;;;;;5042959;28;20482;-77
2022/09/08 09:00:19;;;;;;;14.10;8.93;;;16.80;1.00;;;;;;5043294;28;20445;-76
2022/09/08 09:03:32;;;;;;;15.20;10.13;;;16.90;1.00;;;;;;5045115;28;20460;-77
2022/09/08 09:06:15;;;;;;;17.47;9.57;;;17.10;1.00;;;;;;5032400;28;20526;-77
2022/09/08 09:09:13;;;;;;;12.80;9.07;;;17.20;1.00;;;;;;5047993;28;20551;-78
2022/09/08 09:12:08;;;;;;;17.67;9.87;;;17.30;1.00;;;;;;5049393;28;20454;-77
2022/09/08 09:15:02;;;;;;;16.00;11.70;;;17.30;1.00;;;;;;5050408;28;20471;-79
2022/09/08 09:18:12;;;;;;;12.90;9.43;;;17.40;1.00;;;;;;5047305;28;20436;-77
2022/09/08 09:20:55;;;;;;;16.43;9.60;;;17.50;1.00;;;;;;5015978;28;20846;-76
2022/09/08 09:23:43;;;;;;;14.87;9.43;;;17.80;1.00;;;;;;5050758;28;20506;-75
2022/09/08 09:26:19;;;;;;;16.03;9.63;;;18.00;1.00;;;;;;5049170;28;23876;-76
2022/09/08 09:29:02;;;;;;;13.37;9.23;;;18.40;1.00;;;;;;5048291;28;20456;-77
2022/09/08 09:32:08;;;;;;;13.07;8.67;;;18.60;1.00;;;;;;5037281;28;20869;-77
2022/09/08 09:35:04;;;;;;;16.33;11.37;;;18.80;1.00;;;;;;5045264;28;20461;-77
2022/09/08 09:38:05;;;;;;;17.83;9.00;;;19.00;1.00;;;;;;5037476;28;20587;-79
2022/09/08 09:40:51;;;;;;;16.30;10.30;;;19.00;1.00;;;;;;5034094;28;20486;-79
2022/09/08 09:43:43;;;;;;;17.47;10.53;;;19.20;1.00;;;;;;5050394;28;20451;-78
2022/09/08 09:46:32;;;;;;;14.47;10.13;;;19.30;1.00;;;;;;5053161;28;20851;-79
2022/09/08 09:49:22;;;;;;;13.23;8.60;;;19.30;1.00;;;;;;5048927;28;20527;-78
2022/09/08 09:52:12;;;;;;;15.83;9.97;;;19.40;1.00;;;;;;5049135;28;20424;-77
2022/09/08 09:54:53;;;;;;;18.40;10.33;;;19.40;1.00;;;;;;5032253;28;20460;-77
2022/09/08 09:57:54;;;;;;;16.57;10.17;;;19.40;1.00;;;;;;5047029;28;20905;-78
2022/09/08 10:00:25;;;;;;;14.53;10.40;;;19.50;1.00;;;;;;5047955;28;20503;-80
2022/09/08 10:03:50;;;;;;;14.87;9.00;;;19.50;1.00;;;;;;5046703;28;20421;-82
2022/09/08 10:06:28;;;;;;;14.00;9.60;;;19.60;1.00;;;;;;4979020;28;20436;-81
2022/09/08 10:09:35;;;;;;;12.13;8.73;;;19.50;1.00;;;;;;4991099;28;20443;-81
2022/09/08 10:12:36;;;;;;;13.43;8.43;;;19.50;1.00;;;;;;4986661;28;20499;-80
2022/09/08 10:15:40;;;;;;;17.67;10.07;;;19.40;1.00;;;;;;4986115;28;20474;-80
2022/09/08 10:18:53;;;;;;;14.60;9.13;;;19.30;1.00;;;;;;5027709;28;20903;-80
2022/09/08 10:22:00;;;;;;;12.83;9.97;;;19.30;1.00;;;;;;5044852;28;20459;-80
2022/09/08 10:25:06;;;;;;;12.40;9.23;;;19.30;1.00;;;;;;5001222;28;20436;-79
2022/09/08 10:28:16;;;;;;;12.60;7.97;;;19.20;1.00;;;;;;5046413;28;20559;-78
2022/09/08 10:31:29;;;;;;;13.00;7.93;;;19.10;1.00;;;;;;5044885;28;20468;-79
2022/09/08 10:34:22;;;;;;;12.77;9.07;;;19.00;1.00;;;;;;5020496;28;21143;-80
2022/09/08 10:37:00;;;;;;;14.67;9.53;;;18.90;1.00;;;;;;5049178;28;20408;-79
2022/09/08 10:39:41;;;;;;;14.80;9.00;;;18.90;1.00;;;;;;5048256;28;20954;-78
2022/09/08 10:42:44;;;;;;;15.10;9.83;;;18.70;1.00;;;;;;5050323;28;20594;-79
2022/09/08 10:45:21;;;;;;;17.60;11.10;;;18.40;1.00;;;;;;5043036;28;21141;-81
2022/09/08 10:48:25;;;;;;;18.57;10.80;;;17.90;1.00;;;;;;5045478;28;20448;-80
2022/09/08 10:51:06;;;;;;;14.60;10.87;;;17.60;1.00;;;;;;5049333;28;20425;-80
2022/09/08 10:54:04;;;;;;;16.97;12.97;;;17.40;1.00;;;;;;5048800;28;20448;-78
2022/09/08 10:56:37;;;;;;;20.80;14.23;;;17.10;1.00;;;;;;5048242;28;20472;-79
2022/09/08 11:00:00;;;;;;;20.70;13.93;;;17.10;1.00;;;;;;5046628;28;24082;-81
2022/09/08 11:02:53;;;;;;;19.13;13.87;;;17.10;1.00;;;;;;5048400;28;21389;-79
2022/09/08 11:05:42;;;;;;;17.53;14.13;;;17.20;1.00;;;;;;5048389;28;20534;-81
2022/09/08 11:08:42;;;;;;;20.37;14.30;;;17.20;1.00;;;;;;5051223;28;21267;-80
2022/09/08 11:11:41;;;;;;;25.57;17.40;;;17.20;1.00;;;;;;5046917;28;20435;-81
2022/09/08 11:14:24;;;;;;;23.33;16.37;;;17.20;1.00;;;;;;5026068;28;20417;-80
2022/09/08 11:17:16;;;;;;;20.00;14.90;;;17.20;1.00;;;;;;5051381;28;20433;-78
2022/09/08 11:19:57;;;;;;;20.20;15.23;;;17.20;1.00;;;;;;5043511;28;20558;-78
2022/09/08 11:23:02;;;;;;;22.00;16.80;;;17.20;1.00;;;;;;5047497;28;20550;-78
2022/09/08 11:25:43;;;;;;;21.57;16.10;;;17.20;1.00;;;;;;5044691;28;20447;-78
2022/09/08 11:28:28;;;;;;;23.00;16.10;;;17.20;1.00;;;;;;5043783;28;20465;-80
2022/09/08 11:31:06;;;;;;;24.40;16.03;;;17.20;1.00;;;;;;5047699;28;21298;-78
2022/09/08 11:34:01;;;;;;;23.53;14.83;;;17.20;1.00;;;;;;5044960;28;20460;-78
2022/09/08 11:36:47;;;;;;;21.60;15.67;;;17.10;1.00;;;;;;5046139;28;20468;-78
2022/09/08 11:39:35;;;;;;;25.23;19.50;;;17.00;1.00;;;;;;5048253;28;20429;-84
2022/09/08 11:42:53;;;;;;;18.30;16.00;;;16.90;1.00;;;;;;5032032;28;20469;-82
2022/09/08 11:45:43;;;;;;;20.27;16.60;;;16.90;1.00;;;;;;4989924;28;20494;-82
2022/09/08 11:48:43;;;;;;;17.70;14.90;;;17.00;1.00;;;;;;4975973;28;20918;-81
2022/09/08 11:51:43;;;;;;;19.07;16.83;;;17.10;1.00;;;;;;4997013;28;20484;-81
2022/09/08 11:54:57;;;;;;;21.90;19.60;;;17.10;1.00;;;;;;5047575;28;20424;-82
2022/09/08 11:57:45;;;;;;;19.77;15.67;;;17.20;1.00;;;;;;5015202;28;20449;-83
2022/09/08 12:00:42;;;;;;;19.07;17.07;;;17.30;1.00;;;;;;5030582;28;20444;-84
2022/09/08 12:03:50;;;;;;;18.40;15.77;;;17.40;1.00;;;;;;5047694;28;20479;-81
2022/09/08 12:06:46;;;;;;;22.00;17.60;;;17.40;1.00;;;;;;5022983;28;20886;-82
2022/09/08 12:09:33;;;;;;;22.57;16.77;;;17.30;1.00;;;;;;5024886;28;20472;-82
2022/09/08 12:12:30;;;;;;;20.00;15.90;;;17.40;1.00;;;;;;5024530;28;20631;-82
2022/09/08 12:15:14;;;;;;;18.33;15.60;;;17.30;1.00;;;;;;5034616;28;20438;-81
2022/09/08 12:17:55;;;;;;;18.43;14.87;;;17.40;1.00;;;;;;5030266;28;20466;-83
2022/09/08 12:20:35;;;;;;;19.53;15.57;;;17.40;1.00;;;;;;5031495;28;20425;-85
2022/09/08 12:23:37;;;;;;;19.47;16.47;;;17.50;1.00;;;;;;5029691;28;20414;-85
2022/09/08 12:26:41;;;;;;;;;;;;;;;;;;;;;
2022/09/08 12:29:40;;;;;;;19.27;15.73;;;17.70;1.00;;;;;;5024396;28;42543;-86
2022/09/08 12:32:28;;;;;;;19.40;15.37;;;17.80;1.00;;;;;;5025113;28;20428;-83
2022/09/08 12:35:28;;;;;;;19.07;15.03;;;17.90;1.00;;;;;;5027398;28;20466;-83
2022/09/08 12:38:00;;;;;;;18.90;15.13;;;18.20;1.00;;;;;;5031880;28;20465;-80
2022/09/08 12:40:50;;;;;;;19.73;15.13;;;18.30;1.00;;;;;;5027168;28;20933;-78
2022/09/08 12:43:22;;;;;;;18.80;14.90;;;18.20;1.00;;;;;;5026000;28;20465;-80
2022/09/08 12:46:11;;;;;;;19.37;15.10;;;18.20;1.00;;;;;;5019481;28;20491;-81
2022/09/08 12:48:52;;;;;;;17.10;15.20;;;18.20;1.00;;;;;;5029082;28;20461;-76
2022/09/08 12:51:27;;;;;;;18.30;15.10;;;18.30;1.00;;;;;;5019530;28;20520;-81
2022/09/08 12:54:26;;;;;;;19.57;14.83;;;18.30;1.00;;;;;;5030201;28;20549;-77
2022/09/08 12:57:21;;;;;;;18.47;14.43;;;18.40;1.00;;;;;;5030770;28;20470;-78
2022/09/08 13:00:06;;;;;;;17.80;14.90;;;18.40;1.00;;;;;;5032778;28;20533;-79
2022/09/08 13:03:04;;;;;;;19.80;15.03;;;18.50;1.00;;;;;;5029503;28;20493;-79
2022/09/08 13:05:47;;;;;;;17.87;15.07;;;18.70;1.00;;;;;;5035313;28;20465;-77
2022/09/08 13:08:29;;;;;;;18.47;14.70;;;18.80;1.00;;;;;;5043589;28;20457;-78
2022/09/08 13:11:07;;;;;;;16.23;13.37;;;19.00;1.00;;;;;;5047079;28;20488;-76
2022/09/08 13:13:43;;;;;;;17.57;14.43;;;19.10;1.00;;;;;;5039161;28;24031;-81
2022/09/08 13:16:28;;;;;;;18.17;15.00;;;19.10;1.00;;;;;;5051488;28;20447;-81
2022/09/08 13:19:08;;;;;;;18.03;14.50;;;19.30;1.00;;;;;;5049297;28;20477;-79
2022/09/08 13:22:07;;;;;;;16.60;12.60;;;19.50;1.00;;;;;;5050796;28;20468;-77
2022/09/08 13:24:48;;;;;;;18.53;14.57;;;19.70;1.00;;;;;;5035361;28;20451;-80
2022/09/08 13:27:32;;;;;;;16.70;14.50;;;19.70;1.00;;;;;;5046266;28;20465;-82
2022/09/08 13:30:21;;;;;;;17.23;14.07;;;19.50;1.00;;;;;;5046274;28;20429;-79
2022/09/08 13:33:30;;;;;;;18.70;13.73;;;19.30;1.00;;;;;;5039750;28;20499;-81
2022/09/08 13:36:12;;;;;;;18.10;15.20;;;19.20;1.00;;;;;;5040147;28;20463;-85
2022/09/08 13:39:01;;;;;;;17.47;13.77;;;19.10;1.00;;;;;;5044019;28;20463;-85
2022/09/08 13:42:03;;;;;;;18.30;15.00;;;18.90;1.00;;;;;;5045495;28;20460;-80
2022/09/08 13:45:07;;;;;;;18.17;14.47;;;18.70;1.00;;;;;;5043130;28;23320;-80
2022/09/08 13:48:03;;;;;;;22.60;16.67;;;18.50;1.00;;;;;;5024834;28;20509;-79
2022/09/08 13:51:12;;;;;;;20.43;16.30;;;18.30;1.00;;;;;;5049220;28;20448;-79
2022/09/08 13:54:09;;;;;;;20.27;15.97;;;18.20;1.00;;;;;;5050215;28;20443;-78